createdAt,value
2019-03-29T00:03:09.684Z,80.64
2019-03-29T00:08:04.014Z,80.52
2019-03-29T00:12:57.976Z,81.40
2019-03-29T00:17:52.057Z,82.07
2019-03-29T00:22:46.217Z,82.65
2019-03-29T00:27:40.240Z,82.83
2019-03-29T00:32:34.362Z,82.34
2019-03-29T00:37:28.318Z,82.61
2019-03-29T00:42:22.400Z,83.04
2019-03-29T00:47:16.348Z,83.17
2019-03-29T00:52:10.325Z,83.22
2019-03-29T00:57:05.013Z,83.10
2019-03-29T01:01:59.381Z,83.13
2019-03-29T01:06:53.334Z,83.29
2019-03-29T01:11:47.323Z,83.27
2019-03-29T01:16:41.291Z,83.44
2019-03-29T01:21:35.249Z,83.75
2019-03-29T01:26:29.209Z,83.62
2019-03-29T01:31:23.302Z,83.43
2019-03-29T01:36:17.348Z,83.97
2019-03-29T01:41:11.303Z,83.92
2019-03-29T01:46:05.267Z,84.15
2019-03-29T01:50:59.342Z,84.64
2019-03-29T01:55:53.310Z,84.33
2019-03-29T02:00:47.291Z,84.69
2019-03-29T02:05:41.380Z,84.99
2019-03-29T02:10:35.581Z,85.13
2019-03-29T02:15:29.656Z,85.17
2019-03-29T02:20:24.156Z,85.40
2019-03-29T02:25:18.219Z,85.48
2019-03-29T02:30:12.585Z,85.62
2019-03-29T02:35:06.748Z,85.72
2019-03-29T02:40:01.508Z,85.92
2019-03-29T02:44:55.465Z,85.99
2019-03-29T02:49:49.442Z,86.14
2019-03-29T02:54:43.406Z,86.43
2019-03-29T02:59:37.382Z,86.64
2019-03-29T03:04:31.450Z,86.79
2019-03-29T03:09:25.436Z,86.86
2019-03-29T03:14:19.501Z,86.95
2019-03-29T03:19:13.496Z,87.05
2019-03-29T03:24:07.499Z,87.12
2019-03-29T03:29:01.546Z,87.18
2019-03-29T03:33:55.698Z,87.30
2019-03-29T03:38:49.861Z,87.39
2019-03-29T03:43:43.931Z,87.29
2019-03-29T03:48:37.894Z,87.25
2019-03-29T03:53:31.855Z,87.31
2019-03-29T03:58:26.442Z,86.98
2019-03-29T04:03:21.265Z,87.21
2019-03-29T04:08:16.725Z,87.11
2019-03-29T04:13:10.674Z,87.17
2019-03-29T04:18:04.654Z,86.99
2019-03-29T04:22:58.641Z,87.33
2019-03-29T04:27:52.641Z,87.61
2019-03-29T04:32:46.627Z,87.35
2019-03-29T04:37:40.594Z,87.34
2019-03-29T04:42:34.558Z,87.72
2019-03-29T04:47:28.533Z,87.92
2019-03-29T04:52:22.591Z,88.01
2019-03-29T04:57:16.585Z,87.84
2019-03-29T05:02:10.580Z,87.25
2019-03-29T05:07:04.581Z,87.24
2019-03-29T05:11:58.659Z,87.46
2019-03-29T05:16:52.633Z,87.65
2019-03-29T05:21:46.622Z,87.75
2019-03-29T05:26:40.588Z,87.94
2019-03-29T05:31:34.543Z,87.94
2019-03-29T05:36:28.514Z,87.84
2019-03-29T05:41:22.602Z,87.94
2019-03-29T05:46:16.686Z,88.00
2019-03-29T05:51:10.707Z,88.03
2019-03-29T05:56:04.861Z,87.83
2019-03-29T06:00:58.977Z,87.54
2019-03-29T06:05:52.973Z,87.23
2019-03-29T06:10:49.238Z,87.09
2019-03-29T06:15:42.906Z,86.82
2019-03-29T06:20:37.035Z,86.54
2019-03-29T06:25:31.027Z,86.18
2019-03-29T06:30:29.265Z,85.64
2019-03-29T06:35:23.579Z,85.25
2019-03-29T06:40:24.224Z,84.80
2019-03-29T06:45:18.232Z,84.47
2019-03-29T06:50:14.038Z,84.25
2019-03-29T06:55:08.292Z,84.08
2019-03-29T07:00:03.943Z,83.39
2019-03-29T07:04:57.966Z,82.19
2019-03-29T07:09:51.944Z,80.83
2019-03-29T07:14:45.934Z,79.33
2019-03-29T07:19:39.908Z,77.71
2019-03-29T07:24:33.965Z,76.96
2019-03-29T07:29:27.962Z,75.63
2019-03-29T07:34:21.912Z,73.71
2019-03-29T07:39:15.879Z,72.36
2019-03-29T07:44:09.899Z,71.66
2019-03-29T07:49:04.110Z,71.23
2019-03-29T07:53:58.079Z,70.18
2019-03-29T07:58:52.081Z,69.04
2019-03-29T08:03:46.157Z,68.32
2019-03-29T08:08:40.246Z,67.56
2019-03-29T08:13:34.328Z,67.28
2019-03-29T08:18:28.300Z,65.91
2019-03-29T08:23:22.277Z,65.47
2019-03-29T08:28:16.283Z,64.29
2019-03-29T08:33:10.476Z,63.35
2019-03-29T08:38:06.381Z,63.43
2019-03-29T08:43:00.453Z,61.98
2019-03-29T08:47:54.556Z,61.62
2019-03-29T08:52:48.512Z,61.96
2019-03-29T08:57:42.483Z,60.79
2019-03-29T09:02:36.521Z,61.05
2019-03-29T09:07:44.009Z,60.53
2019-03-29T09:12:26.638Z,60.47
2019-03-29T09:17:20.583Z,59.46
2019-03-29T09:22:14.540Z,59.21
2019-03-29T09:27:08.506Z,58.30
2019-03-29T09:32:02.581Z,57.89
2019-03-29T09:36:59.760Z,58.67
2019-03-29T09:41:52.544Z,57.00
2019-03-29T09:46:46.525Z,56.16
2019-03-29T09:51:40.728Z,54.79
2019-03-29T09:56:39.041Z,54.34
2019-03-29T10:01:30.851Z,54.49
2019-03-29T10:06:24.924Z,53.07
2019-03-29T10:11:21.860Z,53.04
2019-03-29T10:16:14.755Z,50.38
2019-03-29T10:21:08.735Z,48.37
2019-03-29T10:26:02.923Z,46.88
2019-03-29T10:30:57.001Z,45.36
2019-03-29T10:35:52.672Z,43.44
2019-03-29T10:40:47.054Z,41.42
2019-03-29T10:45:41.023Z,36.76
2019-03-29T10:50:35.291Z,33.07
2019-03-29T10:55:29.379Z,28.52
2019-03-29T11:00:33.983Z,23.02
2019-03-29T11:05:27.963Z,23.02
2019-03-29T11:10:29.860Z,22.15
2019-03-29T11:15:24.035Z,19.82
2019-03-29T11:20:18.805Z,20.60
2019-03-29T11:25:12.887Z,20.56
2019-03-29T11:30:07.011Z,17.36
2019-03-29T11:35:01.254Z,15.53
2019-03-29T11:39:55.245Z,14.93
2019-03-29T11:44:49.410Z,14.63
2019-03-29T11:49:43.408Z,18.39
2019-03-29T11:54:37.520Z,17.13
2019-03-29T11:59:31.679Z,14.54
2019-03-29T12:04:25.680Z,15.24
2019-03-29T12:09:19.674Z,12.77
2019-03-29T12:14:13.635Z,12.25
2019-03-29T12:19:07.708Z,16.89
2019-03-29T12:24:01.692Z,12.72
2019-03-29T12:28:55.701Z,12.34
2019-03-29T12:33:49.686Z,10.97
2019-03-29T12:38:43.758Z,10.99
2019-03-29T12:43:37.850Z,10.40
2019-03-29T12:48:31.907Z,10.18
2019-03-29T12:53:25.912Z,9.52
2019-03-29T12:58:19.881Z,10.44
2019-03-29T13:03:13.881Z,9.68
2019-03-29T13:08:07.896Z,9.37
2019-03-29T13:13:01.980Z,8.21
2019-03-29T13:17:55.961Z,7.76
2019-03-29T13:22:49.948Z,7.49
2019-03-29T13:27:43.914Z,7.66
2019-03-29T13:32:38.015Z,8.16
2019-03-29T13:37:32.062Z,7.40
2019-03-29T13:42:26.150Z,7.04
2019-03-29T13:47:20.144Z,7.99
2019-03-29T13:52:14.303Z,7.32
2019-03-29T13:57:08.315Z,8.83
2019-03-29T14:02:02.431Z,14.74
2019-03-29T14:06:56.432Z,18.73
2019-03-29T14:11:50.401Z,19.67
2019-03-29T14:16:44.381Z,20.17
2019-03-29T14:21:38.380Z,18.18
2019-03-29T14:26:32.377Z,12.99
2019-03-29T14:31:26.483Z,9.38
2019-03-29T14:36:20.487Z,8.21
2019-03-29T14:41:14.585Z,8.23
2019-03-29T14:46:08.537Z,7.44
2019-03-29T14:51:02.673Z,6.88
2019-03-29T14:55:56.676Z,7.20
2019-03-29T15:00:50.697Z,7.59
2019-03-29T15:05:44.662Z,6.72
2019-03-29T15:10:38.863Z,6.15
2019-03-29T15:15:32.849Z,6.06
2019-03-29T15:20:26.925Z,6.01
2019-03-29T15:25:20.917Z,5.75
2019-03-29T15:30:15.152Z,5.17
2019-03-29T15:35:09.428Z,5.10
2019-03-29T15:40:04.420Z,5.06
2019-03-29T15:44:58.424Z,8.14
2019-03-29T15:49:56.134Z,5.24
2019-03-29T15:54:48.275Z,5.09
2019-03-29T15:59:42.286Z,5.54
2019-03-29T16:04:36.286Z,5.29
2019-03-29T16:09:30.267Z,5.61
2019-03-29T16:14:24.217Z,5.21
2019-03-29T16:19:18.414Z,5.48
2019-03-29T16:24:12.403Z,6.20
2019-03-29T16:29:06.532Z,6.27
2019-03-29T16:34:00.610Z,6.61
2019-03-29T16:38:54.622Z,7.10
2019-03-29T16:43:48.580Z,6.92
2019-03-29T16:48:42.575Z,7.30
2019-03-29T16:53:39.649Z,8.03
2019-03-29T16:58:32.456Z,8.24
2019-03-29T17:03:26.581Z,9.00
2019-03-29T17:08:20.694Z,9.94
2019-03-29T17:13:14.705Z,15.22
2019-03-29T17:18:08.805Z,21.79
2019-03-29T17:23:03.358Z,25.34
2019-03-29T17:27:57.364Z,26.50
2019-03-29T17:32:51.432Z,28.38
2019-03-29T17:37:45.507Z,29.80
2019-03-29T17:42:39.502Z,31.29
2019-03-29T17:47:33.688Z,32.05
2019-03-29T17:52:27.802Z,33.65
2019-03-29T17:57:21.874Z,34.69
2019-03-29T18:02:16.084Z,36.40
2019-03-29T18:07:10.441Z,37.28
2019-03-29T18:12:04.510Z,38.82
2019-03-29T18:16:58.626Z,40.90
2019-03-29T18:21:52.729Z,42.20
2019-03-29T18:26:46.709Z,43.08
2019-03-29T18:31:40.819Z,42.81
2019-03-29T18:36:34.918Z,43.02
2019-03-29T18:41:28.904Z,43.90
2019-03-29T18:46:23.040Z,44.50
2019-03-29T18:51:17.014Z,45.36
2019-03-29T18:56:11.021Z,46.32
2019-03-29T19:01:05.135Z,47.77
2019-03-29T19:05:59.082Z,47.79
2019-03-29T19:10:53.202Z,48.23
2019-03-29T19:15:47.187Z,48.99
2019-03-29T19:20:41.309Z,49.51
2019-03-29T19:25:35.446Z,49.97
2019-03-29T19:30:29.463Z,50.87
2019-03-29T19:35:23.807Z,50.74
2019-03-29T19:40:18.034Z,50.70
2019-03-29T19:45:12.312Z,50.69
2019-03-29T19:50:06.714Z,51.14
2019-03-29T19:55:01.471Z,51.49
2019-03-29T19:59:56.078Z,52.21
2019-03-29T20:04:50.060Z,52.37
2019-03-29T20:09:44.304Z,52.93
2019-03-29T20:14:38.405Z,52.87
2019-03-29T20:19:32.553Z,53.17
2019-03-29T20:24:26.584Z,53.88
2019-03-29T20:29:20.659Z,53.91
2019-03-29T20:34:14.747Z,54.07
2019-03-29T20:39:08.748Z,55.56
2019-03-29T20:44:02.873Z,56.67
2019-03-29T20:48:56.888Z,57.77
2019-03-29T20:53:51.072Z,58.19
2019-03-29T20:58:45.091Z,58.34
2019-03-29T21:03:39.274Z,58.56
2019-03-29T21:08:33.262Z,58.82
2019-03-29T21:13:27.410Z,58.40
2019-03-29T21:18:21.422Z,57.79
2019-03-29T21:23:15.427Z,58.35
2019-03-29T21:28:09.499Z,58.54
2019-03-29T21:33:03.626Z,58.97
2019-03-29T21:37:57.829Z,58.96
2019-03-29T21:42:51.845Z,59.52
2019-03-29T21:47:46.209Z,59.70
2019-03-29T21:52:40.235Z,59.79
2019-03-29T21:57:34.307Z,60.09
2019-03-29T22:02:28.364Z,60.85
2019-03-29T22:07:22.342Z,60.86
2019-03-29T22:12:16.406Z,60.93
2019-03-29T22:17:10.487Z,61.01
2019-03-29T22:22:04.474Z,61.77
2019-03-29T22:26:58.462Z,62.21
2019-03-29T22:31:52.464Z,62.67
2019-03-29T22:36:46.460Z,63.11
2019-03-29T22:41:40.444Z,63.63
2019-03-29T22:46:34.430Z,64.25
2019-03-29T22:51:28.402Z,64.78
2019-03-29T22:56:22.485Z,65.46
2019-03-29T23:01:17.547Z,65.51
2019-03-29T23:06:11.644Z,65.78
2019-03-29T23:11:05.671Z,66.46
2019-03-29T23:15:59.803Z,67.06
2019-03-29T23:20:54.039Z,67.44
2019-03-29T23:25:47.984Z,67.70
2019-03-29T23:30:42.061Z,68.03
2019-03-29T23:35:36.060Z,68.60
2019-03-29T23:40:30.142Z,69.36
2019-03-29T23:45:24.146Z,69.64
2019-03-29T23:50:18.169Z,70.06
2019-03-29T23:55:12.170Z,70.41
